sensor_id;sensor_type;location;lat;lon;timestamp;P1;durP1;ratioP1;P2;durP2;ratioP2
71610;SDS011;59459;51.172;6.682;2023-03-31T00:00:23;6.50;;;1.13;;
71610;SDS011;59459;51.172;6.682;2023-03-31T00:02:48;6.77;;;0.90;;
71610;SDS011;59459;51.172;6.682;2023-03-31T00:05:13;4.50;;;0.80;;
71610;SDS011;59459;51.172;6.682;2023-03-31T00:07:42;4.75;;;0.73;;
71610;SDS011;59459;51.172;6.682;2023-03-31T00:10:08;5.75;;;0.80;;
71610;SDS011;59459;51.172;6.682;2023-03-31T00:12:34;4.23;;;0.70;;
71610;SDS011;59459;51.172;6.682;2023-03-31T00:14:59;6.23;;;0.77;;
71610;SDS011;59459;51.172;6.682;2023-03-31T00:17:25;6.82;;;0.80;;
71610;SDS011;59459;51.172;6.682;2023-03-31T00:19:50;6.03;;;1.10;;
71610;SDS011;59459;51.172;6.682;2023-03-31T00:22:15;7.80;;;1.20;;
71610;SDS011;59459;51.172;6.682;2023-03-31T00:24:46;8.50;;;1.27;;
71610;SDS011;59459;51.172;6.682;2023-03-31T00:27:11;7.70;;;1.33;;
71610;SDS011;59459;51.172;6.682;2023-03-31T00:29:37;4.20;;;0.80;;
71610;SDS011;59459;51.172;6.682;2023-03-31T00:32:05;5.60;;;1.00;;
71610;SDS011;59459;51.172;6.682;2023-03-31T00:34:30;2.90;;;0.90;;
71610;SDS011;59459;51.172;6.682;2023-03-31T00:36:56;5.37;;;0.80;;
71610;SDS011;59459;51.172;6.682;2023-03-31T00:39:21;7.95;;;1.40;;
71610;SDS011;59459;51.172;6.682;2023-03-31T00:41:48;7.00;;;0.77;;
71610;SDS011;59459;51.172;6.682;2023-03-31T00:44:14;5.28;;;0.80;;
71610;SDS011;59459;51.172;6.682;2023-03-31T00:49:11;11.23;;;1.10;;
71610;SDS011;59459;51.172;6.682;2023-03-31T00:51:37;3.97;;;0.60;;
71610;SDS011;59459;51.172;6.682;2023-03-31T00:54:03;5.17;;;0.80;;
71610;SDS011;59459;51.172;6.682;2023-03-31T00:56:32;7.75;;;0.60;;
71610;SDS011;59459;51.172;6.682;2023-03-31T00:58:59;7.10;;;0.95;;
71610;SDS011;59459;51.172;6.682;2023-03-31T01:01:26;10.18;;;0.98;;
71610;SDS011;59459;51.172;6.682;2023-03-31T01:03:51;7.07;;;0.90;;
71610;SDS011;59459;51.172;6.682;2023-03-31T01:06:17;5.33;;;0.73;;
71610;SDS011;59459;51.172;6.682;2023-03-31T01:08:44;4.40;;;0.80;;
71610;SDS011;59459;51.172;6.682;2023-03-31T01:11:11;8.02;;;1.13;;
71610;SDS011;59459;51.172;6.682;2023-03-31T01:13:37;7.03;;;1.17;;
71610;SDS011;59459;51.172;6.682;2023-03-31T01:16:03;6.43;;;0.80;;
71610;SDS011;59459;51.172;6.682;2023-03-31T01:18:28;12.70;;;1.63;;
71610;SDS011;59459;51.172;6.682;2023-03-31T01:47:54;4.80;;;0.93;;
71610;SDS011;59459;51.172;6.682;2023-03-31T01:50:05;8.10;;;1.10;;
71610;SDS011;59459;51.172;6.682;2023-03-31T01:52:40;10.07;;;1.52;;
71610;SDS011;59459;51.172;6.682;2023-03-31T01:55:17;8.43;;;1.50;;
71610;SDS011;59459;51.172;6.682;2023-03-31T01:57:46;8.95;;;1.13;;
71610;SDS011;59459;51.172;6.682;2023-03-31T02:00:14;11.23;;;1.33;;
71610;SDS011;59459;51.172;6.682;2023-03-31T02:02:43;4.95;;;1.02;;
71610;SDS011;59459;51.172;6.682;2023-03-31T02:05:11;9.80;;;1.77;;
71610;SDS011;59459;51.172;6.682;2023-03-31T02:07:51;7.43;;;1.20;;
71610;SDS011;59459;51.172;6.682;2023-03-31T02:10:18;7.30;;;1.40;;
71610;SDS011;59459;51.172;6.682;2023-03-31T02:12:44;9.60;;;1.08;;
71610;SDS011;59459;51.172;6.682;2023-03-31T02:15:11;10.40;;;1.58;;
71610;SDS011;59459;51.172;6.682;2023-03-31T02:17:38;7.70;;;1.50;;
71610;SDS011;59459;51.172;6.682;2023-03-31T02:20:06;6.07;;;1.20;;
71610;SDS011;59459;51.172;6.682;2023-03-31T02:22:34;9.23;;;1.63;;
71610;SDS011;59459;51.172;6.682;2023-03-31T02:25:01;7.95;;;1.50;;
71610;SDS011;59459;51.172;6.682;2023-03-31T02:27:29;9.43;;;1.20;;
71610;SDS011;59459;51.172;6.682;2023-03-31T02:29:55;11.37;;;2.17;;
71610;SDS011;59459;51.172;6.682;2023-03-31T02:32:25;9.43;;;2.35;;
71610;SDS011;59459;51.172;6.682;2023-03-31T02:34:53;10.00;;;1.50;;
71610;SDS011;59459;51.172;6.682;2023-03-31T02:37:19;11.27;;;1.33;;
71610;SDS011;59459;51.172;6.682;2023-03-31T02:39:45;6.47;;;1.40;;
71610;SDS011;59459;51.172;6.682;2023-03-31T02:42:12;12.02;;;1.90;;
71610;SDS011;59459;51.172;6.682;2023-03-31T02:44:37;10.87;;;2.03;;
71610;SDS011;59459;51.172;6.682;2023-03-31T02:47:03;9.48;;;1.50;;
71610;SDS011;59459;51.172;6.682;2023-03-31T02:49:29;5.68;;;1.10;;
71610;SDS011;59459;51.172;6.682;2023-03-31T02:59:41;10.43;;;1.55;;
71610;SDS011;59459;51.172;6.682;2023-03-31T03:02:17;8.43;;;1.60;;
71610;SDS011;59459;51.172;6.682;2023-03-31T03:07:18;8.30;;;1.37;;
71610;SDS011;59459;51.172;6.682;2023-03-31T03:17:13;14.18;;;1.75;;
71610;SDS011;59459;51.172;6.682;2023-03-31T03:19:39;10.43;;;1.88;;
71610;SDS011;59459;51.172;6.682;2023-03-31T03:22:05;8.47;;;1.57;;
71610;SDS011;59459;51.172;6.682;2023-03-31T03:24:30;6.10;;;1.20;;
71610;SDS011;59459;51.172;6.682;2023-03-31T03:26:58;7.72;;;1.25;;
71610;SDS011;59459;51.172;6.682;2023-03-31T03:29:23;7.37;;;1.37;;
71610;SDS011;59459;51.172;6.682;2023-03-31T03:31:48;6.80;;;1.23;;
71610;SDS011;59459;51.172;6.682;2023-03-31T03:34:13;6.00;;;1.03;;
71610;SDS011;59459;51.172;6.682;2023-03-31T03:36:40;10.98;;;1.23;;
71610;SDS011;59459;51.172;6.682;2023-03-31T03:39:06;7.83;;;1.57;;
71610;SDS011;59459;51.172;6.682;2023-03-31T03:41:31;8.90;;;1.77;;
71610;SDS011;59459;51.172;6.682;2023-03-31T03:43:57;13.10;;;1.30;;
71610;SDS011;59459;51.172;6.682;2023-03-31T03:46:22;7.20;;;1.40;;
71610;SDS011;59459;51.172;6.682;2023-03-31T03:48:48;8.03;;;1.10;;
71610;SDS011;59459;51.172;6.682;2023-03-31T03:51:13;10.50;;;1.47;;
71610;SDS011;59459;51.172;6.682;2023-03-31T03:53:38;8.27;;;1.70;;
71610;SDS011;59459;51.172;6.682;2023-03-31T03:56:03;8.80;;;1.60;;
71610;SDS011;59459;51.172;6.682;2023-03-31T03:58:28;7.40;;;1.40;;
71610;SDS011;59459;51.172;6.682;2023-03-31T04:00:54;7.63;;;1.63;;
71610;SDS011;59459;51.172;6.682;2023-03-31T04:03:20;10.80;;;1.60;;
71610;SDS011;59459;51.172;6.682;2023-03-31T04:05:46;10.43;;;1.63;;
71610;SDS011;59459;51.172;6.682;2023-03-31T04:08:13;6.53;;;1.00;;
71610;SDS011;59459;51.172;6.682;2023-03-31T04:10:42;9.63;;;1.33;;
71610;SDS011;59459;51.172;6.682;2023-03-31T04:13:07;7.25;;;1.27;;
71610;SDS011;59459;51.172;6.682;2023-03-31T04:15:32;5.90;;;1.27;;
71610;SDS011;59459;51.172;6.682;2023-03-31T04:17:58;12.07;;;1.40;;
71610;SDS011;59459;51.172;6.682;2023-03-31T04:20:23;6.97;;;1.37;;
71610;SDS011;59459;51.172;6.682;2023-03-31T04:22:51;10.18;;;1.45;;
71610;SDS011;59459;51.172;6.682;2023-03-31T04:25:16;6.83;;;1.30;;
71610;SDS011;59459;51.172;6.682;2023-03-31T04:27:42;5.57;;;1.20;;
71610;SDS011;59459;51.172;6.682;2023-03-31T04:30:11;7.20;;;1.30;;
71610;SDS011;59459;51.172;6.682;2023-03-31T04:32:37;6.20;;;2.03;;
71610;SDS011;59459;51.172;6.682;2023-03-31T04:35:02;5.37;;;1.10;;
71610;SDS011;59459;51.172;6.682;2023-03-31T04:37:29;8.80;;;1.40;;
71610;SDS011;59459;51.172;6.682;2023-03-31T04:39:59;9.27;;;1.30;;
71610;SDS011;59459;51.172;6.682;2023-03-31T04:42:32;5.03;;;1.02;;
71610;SDS011;59459;51.172;6.682;2023-03-31T04:44:57;6.47;;;1.10;;
71610;SDS011;59459;51.172;6.682;2023-03-31T04:47:23;5.50;;;1.10;;
71610;SDS011;59459;51.172;6.682;2023-03-31T04:49:48;10.03;;;1.60;;
71610;SDS011;59459;51.172;6.682;2023-03-31T04:52:13;6.40;;;1.10;;
71610;SDS011;59459;51.172;6.682;2023-03-31T04:54:38;7.70;;;1.70;;
71610;SDS011;59459;51.172;6.682;2023-03-31T04:57:03;6.53;;;1.63;;
71610;SDS011;59459;51.172;6.682;2023-03-31T04:59:29;4.60;;;1.00;;
71610;SDS011;59459;51.172;6.682;2023-03-31T05:01:54;5.03;;;1.10;;
71610;SDS011;59459;51.172;6.682;2023-03-31T05:04:19;8.63;;;1.30;;
71610;SDS011;59459;51.172;6.682;2023-03-31T05:06:45;5.83;;;1.37;;
71610;SDS011;59459;51.172;6.682;2023-03-31T05:09:10;6.93;;;1.03;;
71610;SDS011;59459;51.172;6.682;2023-03-31T05:11:35;5.43;;;0.73;;
71610;SDS011;59459;51.172;6.682;2023-03-31T05:14:00;5.10;;;1.20;;
71610;SDS011;59459;51.172;6.682;2023-03-31T05:16:26;4.00;;;0.73;;
71610;SDS011;59459;51.172;6.682;2023-03-31T05:18:51;4.37;;;0.60;;
71610;SDS011;59459;51.172;6.682;2023-03-31T05:21:18;5.20;;;0.90;;
71610;SDS011;59459;51.172;6.682;2023-03-31T05:23:43;7.88;;;1.10;;
71610;SDS011;59459;51.172;6.682;2023-03-31T05:26:08;5.97;;;1.27;;
71610;SDS011;59459;51.172;6.682;2023-03-31T05:28:34;4.83;;;0.77;;
71610;SDS011;59459;51.172;6.682;2023-03-31T05:31:00;4.07;;;0.70;;
71610;SDS011;59459;51.172;6.682;2023-03-31T05:33:26;4.60;;;1.00;;
71610;SDS011;59459;51.172;6.682;2023-03-31T05:35:51;4.65;;;0.98;;
71610;SDS011;59459;51.172;6.682;2023-03-31T05:38:17;5.37;;;0.80;;
71610;SDS011;59459;51.172;6.682;2023-03-31T05:40:42;3.57;;;0.83;;
71610;SDS011;59459;51.172;6.682;2023-03-31T05:43:07;2.67;;;0.70;;
71610;SDS011;59459;51.172;6.682;2023-03-31T05:45:32;3.37;;;0.70;;
71610;SDS011;59459;51.172;6.682;2023-03-31T05:47:57;3.90;;;0.80;;
71610;SDS011;59459;51.172;6.682;2023-03-31T05:50:23;2.50;;;1.17;;
71610;SDS011;59459;51.172;6.682;2023-03-31T05:52:48;5.33;;;0.60;;
71610;SDS011;59459;51.172;6.682;2023-03-31T05:55:13;5.00;;;0.57;;
71610;SDS011;59459;51.172;6.682;2023-03-31T05:57:38;3.20;;;0.60;;
71610;SDS011;59459;51.172;6.682;2023-03-31T06:00:04;5.33;;;0.80;;
71610;SDS011;59459;51.172;6.682;2023-03-31T06:02:31;5.07;;;0.95;;
71610;SDS011;59459;51.172;6.682;2023-03-31T06:04:56;4.57;;;0.88;;
71610;SDS011;59459;51.172;6.682;2023-03-31T06:07:22;3.40;;;0.70;;
71610;SDS011;59459;51.172;6.682;2023-03-31T06:09:48;6.03;;;0.95;;
71610;SDS011;59459;51.172;6.682;2023-03-31T06:12:14;4.43;;;0.97;;
71610;SDS011;59459;51.172;6.682;2023-03-31T06:14:40;2.45;;;0.60;;
71610;SDS011;59459;51.172;6.682;2023-03-31T06:17:05;1.70;;;0.33;;
71610;SDS011;59459;51.172;6.682;2023-03-31T06:19:30;3.20;;;0.53;;
71610;SDS011;59459;51.172;6.682;2023-03-31T06:21:55;2.97;;;0.60;;
71610;SDS011;59459;51.172;6.682;2023-03-31T06:24:20;5.03;;;0.50;;
71610;SDS011;59459;51.172;6.682;2023-03-31T06:26:46;3.37;;;0.60;;
71610;SDS011;59459;51.172;6.682;2023-03-31T06:29:11;3.30;;;0.57;;
71610;SDS011;59459;51.172;6.682;2023-03-31T06:31:36;3.57;;;0.43;;
71610;SDS011;59459;51.172;6.682;2023-03-31T06:34:01;3.40;;;0.80;;
71610;SDS011;59459;51.172;6.682;2023-03-31T06:36:27;3.97;;;0.60;;
71610;SDS011;59459;51.172;6.682;2023-03-31T06:38:52;6.40;;;0.67;;
71610;SDS011;59459;51.172;6.682;2023-03-31T06:41:17;2.77;;;0.80;;
71610;SDS011;59459;51.172;6.682;2023-03-31T06:43:44;3.65;;;0.63;;
71610;SDS011;59459;51.172;6.682;2023-03-31T06:46:10;4.35;;;0.70;;
71610;SDS011;59459;51.172;6.682;2023-03-31T06:48:35;5.77;;;1.07;;
71610;SDS011;59459;51.172;6.682;2023-03-31T06:51:02;2.83;;;0.40;;
71610;SDS011;59459;51.172;6.682;2023-03-31T06:53:28;3.53;;;0.50;;
71610;SDS011;59459;51.172;6.682;2023-03-31T06:55:53;4.63;;;0.70;;
71610;SDS011;59459;51.172;6.682;2023-03-31T06:58:18;4.13;;;0.60;;
71610;SDS011;59459;51.172;6.682;2023-03-31T07:00:44;4.63;;;0.70;;
71610;SDS011;59459;51.172;6.682;2023-03-31T07:03:10;3.75;;;0.50;;
71610;SDS011;59459;51.172;6.682;2023-03-31T07:05:35;5.03;;;0.80;;
71610;SDS011;59459;51.172;6.682;2023-03-31T07:08:00;3.50;;;0.60;;
71610;SDS011;59459;51.172;6.682;2023-03-31T07:10:27;3.00;;;0.70;;
71610;SDS011;59459;51.172;6.682;2023-03-31T07:12:52;4.57;;;0.80;;
71610;SDS011;59459;51.172;6.682;2023-03-31T07:15:18;3.73;;;0.60;;
71610;SDS011;59459;51.172;6.682;2023-03-31T07:17:43;2.50;;;0.50;;
71610;SDS011;59459;51.172;6.682;2023-03-31T07:20:09;5.57;;;0.68;;
71610;SDS011;59459;51.172;6.682;2023-03-31T07:22:38;3.37;;;1.00;;
71610;SDS011;59459;51.172;6.682;2023-03-31T07:25:05;5.45;;;1.00;;
71610;SDS011;59459;51.172;6.682;2023-03-31T07:27:31;4.35;;;1.05;;
71610;SDS011;59459;51.172;6.682;2023-03-31T07:29:56;3.83;;;0.50;;
71610;SDS011;59459;51.172;6.682;2023-03-31T07:32:21;1.93;;;0.70;;
71610;SDS011;59459;51.172;6.682;2023-03-31T07:34:47;3.83;;;0.50;;
71610;SDS011;59459;51.172;6.682;2023-03-31T07:37:12;3.50;;;0.70;;
71610;SDS011;59459;51.172;6.682;2023-03-31T07:39:37;5.87;;;0.63;;
71610;SDS011;59459;51.172;6.682;2023-03-31T07:42:03;4.63;;;0.70;;
71610;SDS011;59459;51.172;6.682;2023-03-31T07:44:28;3.70;;;0.70;;
71610;SDS011;59459;51.172;6.682;2023-03-31T07:46:53;4.57;;;0.80;;
71610;SDS011;59459;51.172;6.682;2023-03-31T07:49:18;3.57;;;1.03;;
71610;SDS011;59459;51.172;6.682;2023-03-31T07:51:43;3.20;;;0.60;;
71610;SDS011;59459;51.172;6.682;2023-03-31T07:54:09;8.27;;;1.07;;
71610;SDS011;59459;51.172;6.682;2023-03-31T07:56:34;5.77;;;0.97;;
71610;SDS011;59459;51.172;6.682;2023-03-31T07:58:59;5.90;;;0.90;;
71610;SDS011;59459;51.172;6.682;2023-03-31T08:01:25;6.67;;;0.70;;
71610;SDS011;59459;51.172;6.682;2023-03-31T08:03:50;6.23;;;1.00;;
71610;SDS011;59459;51.172;6.682;2023-03-31T08:06:20;4.05;;;0.98;;
71610;SDS011;59459;51.172;6.682;2023-03-31T08:08:46;5.72;;;0.80;;
71610;SDS011;59459;51.172;6.682;2023-03-31T08:11:12;5.03;;;0.50;;
71610;SDS011;59459;51.172;6.682;2023-03-31T08:13:38;4.80;;;0.70;;
71610;SDS011;59459;51.172;6.682;2023-03-31T08:16:03;6.20;;;0.90;;
71610;SDS011;59459;51.172;6.682;2023-03-31T08:18:28;4.40;;;0.83;;
71610;SDS011;59459;51.172;6.682;2023-03-31T08:20:53;8.63;;;1.20;;
71610;SDS011;59459;51.172;6.682;2023-03-31T08:23:18;8.60;;;1.07;;
71610;SDS011;59459;51.172;6.682;2023-03-31T08:25:44;6.17;;;1.00;;
71610;SDS011;59459;51.172;6.682;2023-03-31T08:28:09;9.37;;;1.53;;
71610;SDS011;59459;51.172;6.682;2023-03-31T08:30:41;7.72;;;1.25;;
71610;SDS011;59459;51.172;6.682;2023-03-31T08:33:06;7.57;;;1.23;;
71610;SDS011;59459;51.172;6.682;2023-03-31T08:35:32;7.30;;;1.20;;
71610;SDS011;59459;51.172;6.682;2023-03-31T08:37:57;9.70;;;1.40;;
71610;SDS011;59459;51.172;6.682;2023-03-31T08:40:23;8.90;;;1.10;;
71610;SDS011;59459;51.172;6.682;2023-03-31T08:42:52;9.20;;;1.30;;
71610;SDS011;59459;51.172;6.682;2023-03-31T08:45:23;6.60;;;1.00;;
71610;SDS011;59459;51.172;6.682;2023-03-31T08:47:51;8.73;;;0.90;;
71610;SDS011;59459;51.172;6.682;2023-03-31T08:50:19;9.32;;;1.02;;
71610;SDS011;59459;51.172;6.682;2023-03-31T08:55:24;9.80;;;1.70;;
71610;SDS011;59459;51.172;6.682;2023-03-31T09:00:16;6.90;;;0.97;;
71610;SDS011;59459;51.172;6.682;2023-03-31T09:02:42;8.87;;;1.10;;
71610;SDS011;59459;51.172;6.682;2023-03-31T09:05:28;10.70;;;2.50;;
71610;SDS011;59459;51.172;6.682;2023-03-31T09:08:16;8.40;;;1.05;;
71610;SDS011;59459;51.172;6.682;2023-03-31T09:10:55;6.82;;;1.42;;
71610;SDS011;59459;51.172;6.682;2023-03-31T09:15:49;8.80;;;1.10;;
71610;SDS011;59459;51.172;6.682;2023-03-31T09:20:45;8.73;;;1.67;;
71610;SDS011;59459;51.172;6.682;2023-03-31T09:29:14;7.03;;;1.35;;
71610;SDS011;59459;51.172;6.682;2023-03-31T09:31:43;10.95;;;1.60;;
71610;SDS011;59459;51.172;6.682;2023-03-31T09:34:30;8.13;;;1.00;;
71610;SDS011;59459;51.172;6.682;2023-03-31T09:36:55;11.38;;;1.85;;
71610;SDS011;59459;51.172;6.682;2023-03-31T09:39:20;8.87;;;1.40;;
71610;SDS011;59459;51.172;6.682;2023-03-31T09:41:46;10.33;;;1.57;;
71610;SDS011;59459;51.172;6.682;2023-03-31T09:44:55;7.32;;;1.20;;
71610;SDS011;59459;51.172;6.682;2023-03-31T09:47:01;9.80;;;1.30;;
71610;SDS011;59459;51.172;6.682;2023-03-31T09:49:27;9.85;;;1.50;;
71610;SDS011;59459;51.172;6.682;2023-03-31T09:51:58;8.90;;;1.43;;
71610;SDS011;59459;51.172;6.682;2023-03-31T09:54:25;5.78;;;1.42;;
71610;SDS011;59459;51.172;6.682;2023-03-31T09:56:53;7.10;;;1.48;;
71610;SDS011;59459;51.172;6.682;2023-03-31T09:59:39;5.17;;;1.40;;
71610;SDS011;59459;51.172;6.682;2023-03-31T10:02:28;12.65;;;1.48;;
71610;SDS011;59459;51.172;6.682;2023-03-31T10:04:50;10.27;;;1.58;;
71610;SDS011;59459;51.172;6.682;2023-03-31T10:07:19;7.70;;;1.60;;
71610;SDS011;59459;51.172;6.682;2023-03-31T10:09:45;11.38;;;1.30;;
71610;SDS011;59459;51.172;6.682;2023-03-31T10:12:18;8.60;;;1.33;;
71610;SDS011;59459;51.172;6.682;2023-03-31T10:14:47;10.27;;;1.52;;
71610;SDS011;59459;51.172;6.682;2023-03-31T10:17:17;9.60;;;1.45;;
71610;SDS011;59459;51.172;6.682;2023-03-31T10:19:46;16.70;;;1.77;;
71610;SDS011;59459;51.172;6.682;2023-03-31T10:22:31;9.33;;;1.90;;
71610;SDS011;59459;51.172;6.682;2023-03-31T10:25:16;8.05;;;1.80;;
71610;SDS011;59459;51.172;6.682;2023-03-31T10:27:41;6.65;;;1.45;;
71610;SDS011;59459;51.172;6.682;2023-03-31T10:30:10;10.10;;;1.40;;
71610;SDS011;59459;51.172;6.682;2023-03-31T10:32:42;9.30;;;1.50;;
71610;SDS011;59459;51.172;6.682;2023-03-31T10:35:26;9.00;;;1.57;;
71610;SDS011;59459;51.172;6.682;2023-03-31T10:37:54;10.13;;;1.40;;
71610;SDS011;59459;51.172;6.682;2023-03-31T10:40:21;6.57;;;1.35;;
71610;SDS011;59459;51.172;6.682;2023-03-31T10:42:49;8.68;;;1.65;;
71610;SDS011;59459;51.172;6.682;2023-03-31T10:47:47;10.07;;;0.90;;
71610;SDS011;59459;51.172;6.682;2023-03-31T10:50:14;9.60;;;0.93;;
71610;SDS011;59459;51.172;6.682;2023-03-31T10:52:43;7.18;;;1.00;;
71610;SDS011;59459;51.172;6.682;2023-03-31T10:55:12;5.95;;;0.85;;
71610;SDS011;59459;51.172;6.682;2023-03-31T11:13:24;4.57;;;0.90;;
71610;SDS011;59459;51.172;6.682;2023-03-31T11:15:55;4.43;;;0.80;;
71610;SDS011;59459;51.172;6.682;2023-03-31T11:31:56;2.97;;;0.60;;
71610;SDS011;59459;51.172;6.682;2023-03-31T11:34:34;6.57;;;1.05;;
71610;SDS011;59459;51.172;6.682;2023-03-31T11:39:45;4.37;;;0.80;;
71610;SDS011;59459;51.172;6.682;2023-03-31T11:42:14;7.43;;;1.00;;
71610;SDS011;59459;51.172;6.682;2023-03-31T11:44:44;5.10;;;1.00;;
71610;SDS011;59459;51.172;6.682;2023-03-31T11:47:16;4.43;;;0.95;;
71610;SDS011;59459;51.172;6.682;2023-03-31T11:49:47;5.70;;;1.02;;
71610;SDS011;59459;51.172;6.682;2023-03-31T11:52:17;7.03;;;1.23;;
71610;SDS011;59459;51.172;6.682;2023-03-31T11:54:48;7.60;;;0.95;;
71610;SDS011;59459;51.172;6.682;2023-03-31T11:57:25;8.80;;;0.85;;
71610;SDS011;59459;51.172;6.682;2023-03-31T11:59:56;7.57;;;2.08;;
71610;SDS011;59459;51.172;6.682;2023-03-31T12:02:28;10.60;;;2.30;;
71610;SDS011;59459;51.172;6.682;2023-03-31T12:04:55;7.13;;;1.77;;
71610;SDS011;59459;51.172;6.682;2023-03-31T12:07:29;7.85;;;1.02;;
71610;SDS011;59459;51.172;6.682;2023-03-31T12:12:30;12.00;;;1.38;;
71610;SDS011;59459;51.172;6.682;2023-03-31T12:17:40;9.10;;;1.83;;
71610;SDS011;59459;51.172;6.682;2023-03-31T12:20:17;10.00;;;1.60;;
71610;SDS011;59459;51.172;6.682;2023-03-31T12:22:46;9.38;;;1.17;;
71610;SDS011;59459;51.172;6.682;2023-03-31T12:25:15;8.85;;;1.15;;
71610;SDS011;59459;51.172;6.682;2023-03-31T12:27:46;9.87;;;1.10;;
71610;SDS011;59459;51.172;6.682;2023-03-31T12:30:19;9.55;;;1.77;;
71610;SDS011;59459;51.172;6.682;2023-03-31T12:32:48;5.55;;;0.73;;
71610;SDS011;59459;51.172;6.682;2023-03-31T12:40:49;7.07;;;1.50;;
71610;SDS011;59459;51.172;6.682;2023-03-31T12:51:09;8.63;;;1.20;;
71610;SDS011;59459;51.172;6.682;2023-03-31T12:53:40;6.75;;;0.98;;
71610;SDS011;59459;51.172;6.682;2023-03-31T12:56:09;7.10;;;1.05;;
71610;SDS011;59459;51.172;6.682;2023-03-31T12:58:38;7.73;;;1.10;;
71610;SDS011;59459;51.172;6.682;2023-03-31T13:01:05;4.47;;;0.80;;
71610;SDS011;59459;51.172;6.682;2023-03-31T13:08:54;6.55;;;0.77;;
71610;SDS011;59459;51.172;6.682;2023-03-31T13:11:41;6.27;;;0.90;;
71610;SDS011;59459;51.172;6.682;2023-03-31T13:14:18;7.47;;;0.80;;
71610;SDS011;59459;51.172;6.682;2023-03-31T13:16:43;5.35;;;0.75;;
71610;SDS011;59459;51.172;6.682;2023-03-31T13:19:11;6.90;;;0.80;;
71610;SDS011;59459;51.172;6.682;2023-03-31T13:24:24;5.72;;;0.95;;
71610;SDS011;59459;51.172;6.682;2023-03-31T13:26:50;3.92;;;0.75;;
71610;SDS011;59459;51.172;6.682;2023-03-31T13:34:42;4.30;;;0.80;;
71610;SDS011;59459;51.172;6.682;2023-03-31T13:42:33;7.43;;;1.00;;
71610;SDS011;59459;51.172;6.682;2023-03-31T13:52:24;7.93;;;0.88;;
71610;SDS011;59459;51.172;6.682;2023-03-31T14:07:46;7.03;;;0.70;;
71610;SDS011;59459;51.172;6.682;2023-03-31T14:10:29;8.20;;;0.60;;
71610;SDS011;59459;51.172;6.682;2023-03-31T14:13:08;7.82;;;0.68;;
71610;SDS011;59459;51.172;6.682;2023-03-31T14:15:38;8.70;;;1.00;;
71610;SDS011;59459;51.172;6.682;2023-03-31T14:18:04;4.60;;;0.55;;
71610;SDS011;59459;51.172;6.682;2023-03-31T14:28:21;6.75;;;0.70;;
71610;SDS011;59459;51.172;6.682;2023-03-31T14:33:23;4.90;;;0.60;;
71610;SDS011;59459;51.172;6.682;2023-03-31T14:36:06;4.40;;;0.60;;
71610;SDS011;59459;51.172;6.682;2023-03-31T14:38:35;4.47;;;0.60;;
71610;SDS011;59459;51.172;6.682;2023-03-31T14:41:01;4.63;;;0.80;;
71610;SDS011;59459;51.172;6.682;2023-03-31T14:43:28;7.90;;;0.88;;
71610;SDS011;59459;51.172;6.682;2023-03-31T14:48:23;8.20;;;1.10;;
71610;SDS011;59459;51.172;6.682;2023-03-31T14:50:48;5.67;;;0.90;;
71610;SDS011;59459;51.172;6.682;2023-03-31T14:53:16;5.20;;;0.63;;
71610;SDS011;59459;51.172;6.682;2023-03-31T14:55:43;5.63;;;0.80;;
71610;SDS011;59459;51.172;6.682;2023-03-31T14:58:10;7.07;;;1.10;;
71610;SDS011;59459;51.172;6.682;2023-03-31T15:00:38;7.00;;;1.30;;
71610;SDS011;59459;51.172;6.682;2023-03-31T15:03:04;6.37;;;0.70;;
71610;SDS011;59459;51.172;6.682;2023-03-31T15:05:32;8.77;;;1.20;;
71610;SDS011;59459;51.172;6.682;2023-03-31T15:07:58;7.07;;;1.00;;
71610;SDS011;59459;51.172;6.682;2023-03-31T15:10:27;7.05;;;1.00;;
71610;SDS011;59459;51.172;6.682;2023-03-31T15:12:52;6.88;;;1.40;;
71610;SDS011;59459;51.172;6.682;2023-03-31T15:15:18;7.70;;;1.50;;
71610;SDS011;59459;51.172;6.682;2023-03-31T15:17:44;9.27;;;1.63;;
71610;SDS011;59459;51.172;6.682;2023-03-31T15:20:24;8.83;;;1.50;;
71610;SDS011;59459;51.172;6.682;2023-03-31T15:22:52;13.48;;;1.77;;
71610;SDS011;59459;51.172;6.682;2023-03-31T15:25:17;8.68;;;1.00;;
71610;SDS011;59459;51.172;6.682;2023-03-31T15:30:11;8.97;;;1.37;;
71610;SDS011;59459;51.172;6.682;2023-03-31T15:32:38;7.63;;;1.17;;
71610;SDS011;59459;51.172;6.682;2023-03-31T15:35:04;7.33;;;1.30;;
71610;SDS011;59459;51.172;6.682;2023-03-31T15:37:35;6.85;;;0.95;;
71610;SDS011;59459;51.172;6.682;2023-03-31T15:40:02;9.45;;;1.42;;
71610;SDS011;59459;51.172;6.682;2023-03-31T15:42:32;5.90;;;1.00;;
71610;SDS011;59459;51.172;6.682;2023-03-31T15:47:32;3.53;;;0.60;;
71610;SDS011;59459;51.172;6.682;2023-03-31T15:52:37;7.33;;;0.70;;
71610;SDS011;59459;51.172;6.682;2023-03-31T15:57:46;5.78;;;0.60;;
71610;SDS011;59459;51.172;6.682;2023-03-31T16:00:39;5.63;;;0.80;;
71610;SDS011;59459;51.172;6.682;2023-03-31T16:02:57;6.25;;;0.80;;
71610;SDS011;59459;51.172;6.682;2023-03-31T16:08:00;6.10;;;0.90;;
71610;SDS011;59459;51.172;6.682;2023-03-31T16:10:26;5.07;;;0.80;;
71610;SDS011;59459;51.172;6.682;2023-03-31T16:12:56;2.73;;;0.60;;
71610;SDS011;59459;51.172;6.682;2023-03-31T16:15:33;5.68;;;1.25;;
71610;SDS011;59459;51.172;6.682;2023-03-31T16:18:10;4.82;;;0.63;;
71610;SDS011;59459;51.172;6.682;2023-03-31T16:20:39;5.72;;;0.82;;
71610;SDS011;59459;51.172;6.682;2023-03-31T16:23:11;4.90;;;0.93;;
71610;SDS011;59459;51.172;6.682;2023-03-31T16:25:38;4.82;;;0.60;;
71610;SDS011;59459;51.172;6.682;2023-03-31T16:28:03;8.75;;;1.20;;
71610;SDS011;59459;51.172;6.682;2023-03-31T16:30:33;5.53;;;0.93;;
71610;SDS011;59459;51.172;6.682;2023-03-31T16:33:00;5.05;;;0.95;;
71610;SDS011;59459;51.172;6.682;2023-03-31T16:35:30;3.88;;;0.50;;
71610;SDS011;59459;51.172;6.682;2023-03-31T16:37:55;7.85;;;1.05;;
71610;SDS011;59459;51.172;6.682;2023-03-31T16:40:21;4.73;;;0.93;;
71610;SDS011;59459;51.172;6.682;2023-03-31T16:42:46;5.63;;;0.63;;
71610;SDS011;59459;51.172;6.682;2023-03-31T16:45:11;3.57;;;0.63;;
71610;SDS011;59459;51.172;6.682;2023-03-31T16:47:37;3.40;;;0.80;;
71610;SDS011;59459;51.172;6.682;2023-03-31T16:50:05;3.30;;;0.50;;
71610;SDS011;59459;51.172;6.682;2023-03-31T16:52:31;6.10;;;0.70;;
71610;SDS011;59459;51.172;6.682;2023-03-31T16:54:56;4.50;;;0.68;;
71610;SDS011;59459;51.172;6.682;2023-03-31T16:57:22;3.73;;;0.67;;
71610;SDS011;59459;51.172;6.682;2023-03-31T16:59:47;5.37;;;0.70;;
71610;SDS011;59459;51.172;6.682;2023-03-31T17:02:13;3.38;;;0.50;;
71610;SDS011;59459;51.172;6.682;2023-03-31T17:04:38;6.40;;;0.70;;
71610;SDS011;59459;51.172;6.682;2023-03-31T17:07:04;5.23;;;0.90;;
71610;SDS011;59459;51.172;6.682;2023-03-31T17:09:29;3.43;;;0.57;;
71610;SDS011;59459;51.172;6.682;2023-03-31T17:11:54;4.93;;;0.80;;
71610;SDS011;59459;51.172;6.682;2023-03-31T17:14:20;2.47;;;0.70;;
71610;SDS011;59459;51.172;6.682;2023-03-31T17:16:45;4.83;;;0.73;;
71610;SDS011;59459;51.172;6.682;2023-03-31T17:19:10;5.30;;;0.80;;
71610;SDS011;59459;51.172;6.682;2023-03-31T17:21:36;4.80;;;0.80;;
71610;SDS011;59459;51.172;6.682;2023-03-31T17:24:04;6.22;;;1.30;;
71610;SDS011;59459;51.172;6.682;2023-03-31T17:26:30;5.55;;;0.50;;
71610;SDS011;59459;51.172;6.682;2023-03-31T17:28:55;3.60;;;0.60;;
71610;SDS011;59459;51.172;6.682;2023-03-31T17:31:21;6.77;;;0.80;;
71610;SDS011;59459;51.172;6.682;2023-03-31T17:33:46;5.40;;;0.70;;
71610;SDS011;59459;51.172;6.682;2023-03-31T17:36:12;3.97;;;0.60;;
71610;SDS011;59459;51.172;6.682;2023-03-31T17:38:37;4.57;;;0.60;;
71610;SDS011;59459;51.172;6.682;2023-03-31T17:41:04;4.07;;;0.63;;
71610;SDS011;59459;51.172;6.682;2023-03-31T17:43:29;3.77;;;0.50;;
71610;SDS011;59459;51.172;6.682;2023-03-31T17:46:27;2.00;;;0.70;;
71610;SDS011;59459;51.172;6.682;2023-03-31T17:48:45;4.25;;;0.70;;